sensor_id;sensor_type;location;lat;lon;timestamp;pressure;altitude;pressure_sealevel;temperature;humidity
80410;BME280;69746;45.596;10.154;2023-11-19T00:00:51;100093.56;;;16.91;56.58
80410;BME280;69746;45.596;10.154;2023-11-19T00:03:18;100093.56;;;16.91;56.47
80410;BME280;69746;45.596;10.154;2023-11-19T00:05:44;100104.59;;;16.91;56.57
80410;BME280;69746;45.596;10.154;2023-11-19T00:08:14;100101.84;;;16.91;56.66
80410;BME280;69746;45.596;10.154;2023-11-19T00:10:39;100101.00;;;16.90;56.62
80410;BME280;69746;45.596;10.154;2023-11-19T00:13:05;100097.44;;;16.90;56.60
80410;BME280;69746;45.596;10.154;2023-11-19T00:15:35;100090.00;;;16.90;56.70
80410;BME280;69746;45.596;10.154;2023-11-19T00:18:00;100090.81;;;16.91;56.53
80410;BME280;69746;45.596;10.154;2023-11-19T00:20:30;100096.31;;;16.91;56.42
80410;BME280;69746;45.596;10.154;2023-11-19T00:22:56;100100.19;;;16.90;56.71
80410;BME280;69746;45.596;10.154;2023-11-19T00:25:22;100086.41;;;16.90;56.58
80410;BME280;69746;45.596;10.154;2023-11-19T00:27:48;100095.78;;;16.89;56.58
80410;BME280;69746;45.596;10.154;2023-11-19T00:30:14;100077.31;;;16.89;56.49
80410;BME280;69746;45.596;10.154;2023-11-19T00:32:41;100079.78;;;16.91;56.59
80410;BME280;69746;45.596;10.154;2023-11-19T00:35:07;100079.78;;;16.91;56.58
80410;BME280;69746;45.596;10.154;2023-11-19T00:37:33;100074.28;;;16.91;56.50
80410;BME280;69746;45.596;10.154;2023-11-19T00:40:01;100075.38;;;16.90;56.63
80410;BME280;69746;45.596;10.154;2023-11-19T00:42:31;100062.44;;;16.90;56.63
80410;BME280;69746;45.596;10.154;2023-11-19T00:44:56;100056.94;;;16.90;56.68
80410;BME280;69746;45.596;10.154;2023-11-19T00:47:23;100052.53;;;16.89;56.59
80410;BME280;69746;45.596;10.154;2023-11-19T00:49:50;100042.03;;;16.86;56.56
80410;BME280;69746;45.596;10.154;2023-11-19T00:52:17;100048.38;;;16.87;56.74
80410;BME280;69746;45.596;10.154;2023-11-19T00:54:47;100061.59;;;16.90;56.55
80410;BME280;69746;45.596;10.154;2023-11-19T00:57:13;100061.59;;;16.90;56.39
80410;BME280;69746;45.596;10.154;2023-11-19T00:59:41;100057.19;;;16.89;56.64
80410;BME280;69746;45.596;10.154;2023-11-19T01:02:07;100061.59;;;16.90;56.68
80410;BME280;69746;45.596;10.154;2023-11-19T01:04:35;100067.66;;;16.87;56.61
80410;BME280;69746;45.596;10.154;2023-11-19T01:07:02;100069.88;;;16.90;56.68
80410;BME280;69746;45.596;10.154;2023-11-19T01:09:32;100058.84;;;16.90;56.59
80410;BME280;69746;45.596;10.154;2023-11-19T01:12:03;100055.28;;;16.89;56.64
80410;BME280;69746;45.596;10.154;2023-11-19T01:14:29;100052.53;;;16.89;56.61
80410;BME280;69746;45.596;10.154;2023-11-19T01:16:57;100058.03;;;16.89;56.31
80410;BME280;69746;45.596;10.154;2023-11-19T01:19:24;100046.19;;;16.89;56.44
80410;BME280;69746;45.596;10.154;2023-11-19T01:21:51;100060.78;;;16.89;56.70
80410;BME280;69746;45.596;10.154;2023-11-19T01:24:17;100059.97;;;16.89;56.54
80410;BME280;69746;45.596;10.154;2023-11-19T01:26:47;100064.63;;;16.88;56.71
80410;BME280;69746;45.596;10.154;2023-11-19T01:29:13;100070.69;;;16.90;56.51
80410;BME280;69746;45.596;10.154;2023-11-19T01:31:43;100056.66;;;16.87;56.36
80410;BME280;69746;45.596;10.154;2023-11-19T01:34:11;100057.19;;;16.89;56.53
80410;BME280;69746;45.596;10.154;2023-11-19T01:36:37;100048.09;;;16.88;56.62
80410;BME280;69746;45.596;10.154;2023-11-19T01:39:03;100044.25;;;16.89;56.16
80410;BME280;69746;45.596;10.154;2023-11-19T01:41:35;100045.09;;;16.90;56.62
80410;BME280;69746;45.596;10.154;2023-11-19T01:44:06;100040.66;;;16.89;56.72
80410;BME280;69746;45.596;10.154;2023-11-19T01:46:32;100037.09;;;16.88;56.49
80410;BME280;69746;45.596;10.154;2023-11-19T01:48:59;100035.16;;;16.89;56.59
80410;BME280;69746;45.596;10.154;2023-11-19T01:51:25;100029.66;;;16.89;56.58
80410;BME280;69746;45.596;10.154;2023-11-19T01:53:52;100032.41;;;16.89;56.33
80410;BME280;69746;45.596;10.154;2023-11-19T01:56:18;100026.91;;;16.89;56.41
80410;BME280;69746;45.596;10.154;2023-11-19T01:58:46;100028.81;;;16.88;56.59
80410;BME280;69746;45.596;10.154;2023-11-19T02:01:14;100026.91;;;16.89;56.39
80410;BME280;69746;45.596;10.154;2023-11-19T02:03:40;100024.13;;;16.89;56.41
80410;BME280;69746;45.596;10.154;2023-11-19T02:06:07;100025.78;;;16.90;56.35
80410;BME280;69746;45.596;10.154;2023-11-19T02:08:33;100020.56;;;16.88;56.58
80410;BME280;69746;45.596;10.154;2023-11-19T02:10:59;100019.72;;;16.88;56.72
80410;BME280;69746;45.596;10.154;2023-11-19T02:13:26;100012.56;;;16.87;56.41
80410;BME280;69746;45.596;10.154;2023-11-19T02:15:52;100007.06;;;16.87;56.63
80410;BME280;69746;45.596;10.154;2023-11-19T02:18:20;100013.38;;;16.87;56.54
80410;BME280;69746;45.596;10.154;2023-11-19T02:20:49;100008.72;;;16.88;56.29
80410;BME280;69746;45.596;10.154;2023-11-19T02:23:15;99999.63;;;16.87;56.59
80410;BME280;69746;45.596;10.154;2023-11-19T02:25:43;100004.03;;;16.88;55.97
80410;BME280;69746;45.596;10.154;2023-11-19T02:28:13;99993.28;;;16.87;56.32
80410;BME280;69746;45.596;10.154;2023-11-19T02:30:39;99993.28;;;16.87;56.54
80410;BME280;69746;45.596;10.154;2023-11-19T02:33:05;99993.28;;;16.87;56.36
80410;BME280;69746;45.596;10.154;2023-11-19T02:35:31;99986.94;;;16.86;56.25
80410;BME280;69746;45.596;10.154;2023-11-19T02:38:00;99986.94;;;16.86;56.20
80410;BME280;69746;45.596;10.154;2023-11-19T02:40:26;99977.84;;;16.86;56.38
80410;BME280;69746;45.596;10.154;2023-11-19T02:42:53;99966.00;;;16.85;56.38
80410;BME280;69746;45.596;10.154;2023-11-19T02:45:22;99962.97;;;16.87;56.43
80410;BME280;69746;45.596;10.154;2023-11-19T02:47:48;99970.41;;;16.86;56.18
80410;BME280;69746;45.596;10.154;2023-11-19T02:50:14;99966.00;;;16.85;56.32
80410;BME280;69746;45.596;10.154;2023-11-19T02:52:41;99960.50;;;16.85;56.42
80410;BME280;69746;45.596;10.154;2023-11-19T02:55:08;99958.84;;;16.84;56.44
80410;BME280;69746;45.596;10.154;2023-11-19T02:57:38;99958.56;;;16.86;56.29
80410;BME280;69746;45.596;10.154;2023-11-19T03:00:15;99954.72;;;16.87;56.27
80410;BME280;69746;45.596;10.154;2023-11-19T03:02:41;99949.47;;;16.85;56.39
80410;BME280;69746;45.596;10.154;2023-11-19T03:05:14;99953.88;;;16.86;56.27
80410;BME280;69746;45.596;10.154;2023-11-19T03:07:43;99953.06;;;16.86;56.48
80410;BME280;69746;45.596;10.154;2023-11-19T03:10:10;99949.47;;;16.85;56.33
80410;BME280;69746;45.596;10.154;2023-11-19T03:12:40;99955.81;;;16.86;56.42
80410;BME280;69746;45.596;10.154;2023-11-19T03:15:07;99943.69;;;16.87;56.45
80410;BME280;69746;45.596;10.154;2023-11-19T03:17:42;99948.38;;;16.86;56.32
80410;BME280;69746;45.596;10.154;2023-11-19T03:20:11;99948.38;;;16.86;56.19
80410;BME280;69746;45.596;10.154;2023-11-19T03:22:41;99938.44;;;16.85;56.39
80410;BME280;69746;45.596;10.154;2023-11-19T03:25:08;99947.53;;;16.86;56.03
80410;BME280;69746;45.596;10.154;2023-11-19T03:27:36;99941.22;;;16.85;56.37
80410;BME280;69746;45.596;10.154;2023-11-19T03:30:07;99943.97;;;16.85;56.16
80410;BME280;69746;45.596;10.154;2023-11-19T03:32:35;99947.81;;;16.84;56.30
80410;BME280;69746;45.596;10.154;2023-11-19T03:35:02;99949.19;;;16.87;56.19
80410;BME280;69746;45.596;10.154;2023-11-19T03:37:30;99944.50;;;16.82;56.51
80410;BME280;69746;45.596;10.154;2023-11-19T03:39:57;99951.41;;;16.85;56.20
80410;BME280;69746;45.596;10.154;2023-11-19T03:42:28;99947.53;;;16.86;56.25
80410;BME280;69746;45.596;10.154;2023-11-19T03:44:56;99954.97;;;16.85;56.05
80410;BME280;69746;45.596;10.154;2023-11-19T03:47:22;99948.66;;;16.85;56.39
80410;BME280;69746;45.596;10.154;2023-11-19T03:49:49;99939.28;;;16.86;56.18
80410;BME280;69746;45.596;10.154;2023-11-19T03:52:16;99932.13;;;16.85;56.03
80410;BME280;69746;45.596;10.154;2023-11-19T03:54:42;99921.09;;;16.85;56.35
80410;BME280;69746;45.596;10.154;2023-11-19T03:57:08;99923.84;;;16.85;56.02
80410;BME280;69746;45.596;10.154;2023-11-19T03:59:36;99924.69;;;16.85;56.05
80410;BME280;69746;45.596;10.154;2023-11-19T04:02:04;99927.44;;;16.85;56.08
80410;BME280;69746;45.596;10.154;2023-11-19T04:04:29;99924.13;;;16.83;56.15
80410;BME280;69746;45.596;10.154;2023-11-19T04:06:56;99923.31;;;16.83;56.32
80410;BME280;69746;45.596;10.154;2023-11-19T04:09:22;99931.28;;;16.84;56.15
80410;BME280;69746;45.596;10.154;2023-11-19T04:11:48;99933.22;;;16.84;56.07
80410;BME280;69746;45.596;10.154;2023-11-19T04:14:14;99923.31;;;16.83;56.08
80410;BME280;69746;45.596;10.154;2023-11-19T04:16:46;99927.72;;;16.84;56.33
80410;BME280;69746;45.596;10.154;2023-11-19T04:19:12;99932.13;;;16.85;56.03
80410;BME280;69746;45.596;10.154;2023-11-19T04:21:40;99918.63;;;16.83;56.36
80410;BME280;69746;45.596;10.154;2023-11-19T04:24:11;99918.63;;;16.83;56.01
80410;BME280;69746;45.596;10.154;2023-11-19T04:26:42;99917.78;;;16.83;56.34
80410;BME280;69746;45.596;10.154;2023-11-19T04:29:13;99926.06;;;16.83;55.93
80410;BME280;69746;45.596;10.154;2023-11-19T04:31:41;99914.22;;;16.82;56.29
80410;BME280;69746;45.596;10.154;2023-11-19T04:34:08;99914.22;;;16.82;56.29
80410;BME280;69746;45.596;10.154;2023-11-19T04:36:35;99897.69;;;16.82;56.15
80410;BME280;69746;45.596;10.154;2023-11-19T04:39:02;99896.84;;;16.82;56.20
80410;BME280;69746;45.596;10.154;2023-11-19T04:41:31;99898.78;;;16.81;56.04
80410;BME280;69746;45.596;10.154;2023-11-19T04:43:57;99889.41;;;16.82;56.04
80410;BME280;69746;45.596;10.154;2023-11-19T04:46:23;99889.41;;;16.82;56.04
80410;BME280;69746;45.596;10.154;2023-11-19T04:48:50;99891.34;;;16.82;56.23
80410;BME280;69746;45.596;10.154;2023-11-19T04:51:16;99885.84;;;16.82;56.35
80410;BME280;69746;45.596;10.154;2023-11-19T04:53:42;99877.00;;;16.79;56.19
80410;BME280;69746;45.596;10.154;2023-11-19T04:56:09;99881.16;;;16.82;56.08
80410;BME280;69746;45.596;10.154;2023-11-19T04:58:35;99878.41;;;16.82;56.01
80410;BME280;69746;45.596;10.154;2023-11-19T05:01:04;99881.16;;;16.82;56.03
80410;BME280;69746;45.596;10.154;2023-11-19T05:03:31;99889.41;;;16.82;56.00
80410;BME280;69746;45.596;10.154;2023-11-19T05:05:57;99886.66;;;16.82;56.22
80410;BME280;69746;45.596;10.154;2023-11-19T05:08:23;99883.91;;;16.82;56.04
80410;BME280;69746;45.596;10.154;2023-11-19T05:10:52;99881.97;;;16.83;55.96
80410;BME280;69746;45.596;10.154;2023-11-19T05:13:18;99872.06;;;16.82;56.20
80410;BME280;69746;45.596;10.154;2023-11-19T05:15:44;99868.22;;;16.83;55.96
80410;BME280;69746;45.596;10.154;2023-11-19T05:18:09;99859.13;;;16.82;55.86
80410;BME280;69746;45.596;10.154;2023-11-19T05:20:35;99861.03;;;16.82;56.08
80410;BME280;69746;45.596;10.154;2023-11-19T05:23:01;99862.16;;;16.80;56.17
80410;BME280;69746;45.596;10.154;2023-11-19T05:25:27;99859.41;;;16.80;55.97
80410;BME280;69746;45.596;10.154;2023-11-19T05:27:56;99864.91;;;16.80;56.03
80410;BME280;69746;45.596;10.154;2023-11-19T05:30:21;99863.81;;;16.82;56.04
80410;BME280;69746;45.596;10.154;2023-11-19T05:32:48;99862.16;;;16.80;55.98
80410;BME280;69746;45.596;10.154;2023-11-19T05:35:14;99862.16;;;16.80;56.20
80410;BME280;69746;45.596;10.154;2023-11-19T05:37:40;99857.47;;;16.81;56.31
80410;BME280;69746;45.596;10.154;2023-11-19T05:40:07;99840.13;;;16.80;55.98
80410;BME280;69746;45.596;10.154;2023-11-19T05:42:40;99853.88;;;16.80;56.24
80410;BME280;69746;45.596;10.154;2023-11-19T05:45:07;99850.31;;;16.80;56.16
80410;BME280;69746;45.596;10.154;2023-11-19T05:47:33;99841.75;;;16.76;56.01
80410;BME280;69746;45.596;10.154;2023-11-19T05:50:02;99850.03;;;16.82;56.20
80410;BME280;69746;45.596;10.154;2023-11-19T05:52:28;99848.38;;;16.80;56.06
80410;BME280;69746;45.596;10.154;2023-11-19T05:55:01;99839.28;;;16.80;56.04
80410;BME280;69746;45.596;10.154;2023-11-19T05:57:37;99837.59;;;16.79;55.99
80410;BME280;69746;45.596;10.154;2023-11-19T06:00:03;99833.78;;;16.80;55.97
80410;BME280;69746;45.596;10.154;2023-11-19T06:02:34;99834.59;;;16.80;56.05
80410;BME280;69746;45.596;10.154;2023-11-19T06:05:03;99838.19;;;16.81;56.18
80410;BME280;69746;45.596;10.154;2023-11-19T06:07:33;99843.94;;;16.79;56.16
80410;BME280;69746;45.596;10.154;2023-11-19T06:10:01;99837.34;;;16.80;56.19
80410;BME280;69746;45.596;10.154;2023-11-19T06:12:29;99838.44;;;16.79;56.34
80410;BME280;69746;45.596;10.154;2023-11-19T06:15:02;99832.66;;;16.81;56.08
80410;BME280;69746;45.596;10.154;2023-11-19T06:17:28;99830.16;;;16.79;55.95
80410;BME280;69746;45.596;10.154;2023-11-19T06:19:53;99825.50;;;16.80;56.04
80410;BME280;69746;45.596;10.154;2023-11-19T06:22:21;99816.38;;;16.79;56.16
80410;BME280;69746;45.596;10.154;2023-11-19T06:24:46;99824.94;;;16.78;55.89
80410;BME280;69746;45.596;10.154;2023-11-19T06:27:13;99820.25;;;16.78;56.20
80410;BME280;69746;45.596;10.154;2023-11-19T06:29:38;99834.84;;;16.79;56.29
80410;BME280;69746;45.596;10.154;2023-11-19T06:32:06;99832.91;;;16.79;56.05
80410;BME280;69746;45.596;10.154;2023-11-19T06:34:36;99829.34;;;16.79;56.11
80410;BME280;69746;45.596;10.154;2023-11-19T06:37:02;99832.09;;;16.79;56.05
80410;BME280;69746;45.596;10.154;2023-11-19T06:39:30;99827.69;;;16.78;56.20
80410;BME280;69746;45.596;10.154;2023-11-19T06:41:56;99825.75;;;16.78;56.22
80410;BME280;69746;45.596;10.154;2023-11-19T06:44:22;99834.84;;;16.79;56.05
80410;BME280;69746;45.596;10.154;2023-11-19T06:46:48;99825.75;;;16.78;56.32
80410;BME280;69746;45.596;10.154;2023-11-19T06:49:15;99834.03;;;16.78;56.06
80410;BME280;69746;45.596;10.154;2023-11-19T06:51:42;99838.44;;;16.79;56.20
80410;BME280;69746;45.596;10.154;2023-11-19T06:54:09;99836.53;;;16.80;56.00
80410;BME280;69746;45.596;10.154;2023-11-19T06:56:35;99826.59;;;16.79;56.16
80410;BME280;69746;45.596;10.154;2023-11-19T06:59:00;99832.91;;;16.79;56.08
80410;BME280;69746;45.596;10.154;2023-11-19T07:01:26;99837.59;;;16.79;55.99
80410;BME280;69746;45.596;10.154;2023-11-19T07:03:52;99830.44;;;16.78;56.09
80410;BME280;69746;45.596;10.154;2023-11-19T07:06:18;99829.34;;;16.79;56.32
80410;BME280;69746;45.596;10.154;2023-11-19T07:08:44;99840.34;;;16.79;55.86
80410;BME280;69746;45.596;10.154;2023-11-19T07:11:13;99843.94;;;16.79;56.06
80410;BME280;69746;45.596;10.154;2023-11-19T07:13:42;99834.03;;;16.78;56.00
80410;BME280;69746;45.596;10.154;2023-11-19T07:16:08;99839.53;;;16.78;55.96
80410;BME280;69746;45.596;10.154;2023-11-19T07:18:35;99846.16;;;16.77;56.05
80410;BME280;69746;45.596;10.154;2023-11-19T07:21:04;99837.88;;;16.77;55.90
80410;BME280;69746;45.596;10.154;2023-11-19T07:23:30;99852.47;;;16.78;56.08
80410;BME280;69746;45.596;10.154;2023-11-19T07:25:56;99867.06;;;16.78;56.02
80410;BME280;69746;45.596;10.154;2023-11-19T07:28:22;99847.78;;;16.78;56.20
80410;BME280;69746;45.596;10.154;2023-11-19T07:30:48;99863.50;;;16.78;56.16
80410;BME280;69746;45.596;10.154;2023-11-19T07:33:13;99855.22;;;16.78;56.01
80410;BME280;69746;45.596;10.154;2023-11-19T07:35:39;99863.50;;;16.78;56.33
80410;BME280;69746;45.596;10.154;2023-11-19T07:38:08;99849.72;;;16.78;56.00
80410;BME280;69746;45.596;10.154;2023-11-19T07:40:33;99854.41;;;16.77;56.13
80410;BME280;69746;45.596;10.154;2023-11-19T07:43:02;99857.16;;;16.77;56.03
80410;BME280;69746;45.596;10.154;2023-11-19T07:45:28;99860.75;;;16.78;56.24
80410;BME280;69746;45.596;10.154;2023-11-19T07:47:53;99861.84;;;16.77;56.39
80410;BME280;69746;45.596;10.154;2023-11-19T07:50:20;99862.66;;;16.77;55.96
80410;BME280;69746;45.596;10.154;2023-11-19T07:52:48;99865.44;;;16.77;56.35
80410;BME280;69746;45.596;10.154;2023-11-19T07:55:14;99858.00;;;16.78;56.30
80410;BME280;69746;45.596;10.154;2023-11-19T07:57:40;99865.44;;;16.77;56.13
80410;BME280;69746;45.596;10.154;2023-11-19T08:00:06;99835.13;;;16.77;56.28
80410;BME280;69746;45.596;10.154;2023-11-19T08:02:33;99843.38;;;16.77;56.01
80410;BME280;69746;45.596;10.154;2023-11-19T08:04:59;99837.88;;;16.77;56.02
80410;BME280;69746;45.596;10.154;2023-11-19T08:07:24;99847.25;;;16.76;56.11
80410;BME280;69746;45.596;10.154;2023-11-19T08:09:50;99848.91;;;16.77;56.28
80410;BME280;69746;45.596;10.154;2023-11-19T08:12:16;99846.16;;;16.77;56.32
80410;BME280;69746;45.596;10.154;2023-11-19T08:14:43;99850.00;;;16.76;56.42
80410;BME280;69746;45.596;10.154;2023-11-19T08:17:10;99851.94;;;16.76;56.43
80410;BME280;69746;45.596;10.154;2023-11-19T08:19:36;99843.66;;;16.76;56.04
80410;BME280;69746;45.596;10.154;2023-11-19T08:22:01;99856.34;;;16.77;56.11
80410;BME280;69746;45.596;10.154;2023-11-19T08:24:27;99855.22;;;16.78;55.99
80410;BME280;69746;45.596;10.154;2023-11-19T08:26:53;99867.34;;;16.77;56.46
80410;BME280;69746;45.596;10.154;2023-11-19T08:29:22;99867.34;;;16.77;56.41
80410;BME280;69746;45.596;10.154;2023-11-19T08:31:48;99876.44;;;16.77;56.25
80410;BME280;69746;45.596;10.154;2023-11-19T08:34:14;99866.53;;;16.76;56.10
80410;BME280;69746;45.596;10.154;2023-11-19T08:36:41;99871.22;;;16.76;56.37
80410;BME280;69746;45.596;10.154;2023-11-19T08:39:07;99878.66;;;16.75;56.11
80410;BME280;69746;45.596;10.154;2023-11-19T08:41:34;99883.06;;;16.76;56.22
80410;BME280;69746;45.596;10.154;2023-11-19T08:44:03;99886.63;;;16.77;56.02
80410;BME280;69746;45.596;10.154;2023-11-19T08:46:35;99890.50;;;16.76;56.38
80410;BME280;69746;45.596;10.154;2023-11-19T08:49:01;99888.56;;;16.76;56.09
80410;BME280;69746;45.596;10.154;2023-11-19T08:51:27;99883.88;;;16.77;56.29
80410;BME280;69746;45.596;10.154;2023-11-19T08:53:54;99892.97;;;16.77;56.01
80410;BME280;69746;45.596;10.154;2023-11-19T08:56:22;99874.78;;;16.76;56.20
80410;BME280;69746;45.596;10.154;2023-11-19T08:58:48;99890.50;;;16.76;56.17
80410;BME280;69746;45.596;10.154;2023-11-19T09:01:14;99889.66;;;16.75;56.33
80410;BME280;69746;45.596;10.154;2023-11-19T09:03:40;99885.81;;;16.76;56.21
80410;BME280;69746;45.596;10.154;2023-11-19T09:06:09;99886.63;;;16.77;55.95
80410;BME280;69746;45.596;10.154;2023-11-19T09:08:34;99893.25;;;16.76;56.38
80410;BME280;69746;45.596;10.154;2023-11-19T09:11:00;99891.31;;;16.76;56.00
80410;BME280;69746;45.596;10.154;2023-11-19T09:13:26;99901.22;;;16.77;56.22
80410;BME280;69746;45.596;10.154;2023-11-19T09:15:52;99879.47;;;16.76;56.10
80410;BME280;69746;45.596;10.154;2023-11-19T09:18:17;99889.38;;;16.77;55.97
80410;BME280;69746;45.596;10.154;2023-11-19T09:20:44;99891.31;;;16.76;56.15
80410;BME280;69746;45.596;10.154;2023-11-19T09:23:11;99891.03;;;16.78;55.95
80410;BME280;69746;45.596;10.154;2023-11-19T09:25:38;99884.16;;;16.75;56.22
80410;BME280;69746;45.596;10.154;2023-11-19T09:28:05;99884.97;;;16.76;56.24
80410;BME280;69746;45.596;10.154;2023-11-19T09:30:31;99882.22;;;16.76;56.17
80410;BME280;69746;45.596;10.154;2023-11-19T09:32:59;99878.66;;;16.75;56.08
80410;BME280;69746;45.596;10.154;2023-11-19T09:35:25;99874.78;;;16.76;56.13
80410;BME280;69746;45.596;10.154;2023-11-19T09:37:51;99872.03;;;16.76;56.13
80410;BME280;69746;45.596;10.154;2023-11-19T09:40:18;99878.38;;;16.77;56.19
80410;BME280;69746;45.596;10.154;2023-11-19T09:42:44;99877.53;;;16.76;55.94
80410;BME280;69746;45.596;10.154;2023-11-19T09:45:15;99872.88;;;16.77;56.25
80410;BME280;69746;45.596;10.154;2023-11-19T09:47:44;99871.22;;;16.76;56.38
80410;BME280;69746;45.596;10.154;2023-11-19T09:50:17;99869.28;;;16.76;56.11
80410;BME280;69746;45.596;10.154;2023-11-19T09:52:48;99860.19;;;16.76;56.18
80410;BME280;69746;45.596;10.154;2023-11-19T09:55:16;99858.25;;;16.76;56.19
80410;BME280;69746;45.596;10.154;2023-11-19T09:57:44;99870.09;;;16.77;56.24
80410;BME280;69746;45.596;10.154;2023-11-19T10:00:13;99863.78;;;16.76;56.30
80410;BME280;69746;45.596;10.154;2023-11-19T10:02:41;99869.28;;;16.76;56.07
80410;BME280;69746;45.596;10.154;2023-11-19T10:05:07;99884.72;;;16.77;56.21
80410;BME280;69746;45.596;10.154;2023-11-19T10:07:33;99883.88;;;16.77;56.09
80410;BME280;69746;45.596;10.154;2023-11-19T10:10:03;99876.44;;;16.77;56.03
80410;BME280;69746;45.596;10.154;2023-11-19T10:12:33;99863.50;;;16.78;56.52
80410;BME280;69746;45.596;10.154;2023-11-19T10:14:59;99864.59;;;16.77;56.08
80410;BME280;69746;45.596;10.154;2023-11-19T10:17:28;99849.72;;;16.78;55.95
80410;BME280;69746;45.596;10.154;2023-11-19T10:20:01;99840.63;;;16.77;55.99
80410;BME280;69746;45.596;10.154;2023-11-19T10:22:27;99833.47;;;16.76;56.33
80410;BME280;69746;45.596;10.154;2023-11-19T10:24:53;99827.97;;;16.76;55.99
80410;BME280;69746;45.596;10.154;2023-11-19T10:27:19;99827.97;;;16.76;56.27
80410;BME280;69746;45.596;10.154;2023-11-19T10:29:51;99824.09;;;16.77;56.06
80410;BME280;69746;45.596;10.154;2023-11-19T10:32:17;99827.97;;;16.76;55.96
80410;BME280;69746;45.596;10.154;2023-11-19T10:34:42;99828.78;;;16.77;56.37
80410;BME280;69746;45.596;10.154;2023-11-19T10:37:09;99826.31;;;16.75;56.18
80410;BME280;69746;45.596;10.154;2023-11-19T10:40:14;99834.03;;;16.78;56.18
80410;BME280;69746;45.596;10.154;2023-11-19T10:42:41;99833.19;;;16.78;56.36
80410;BME280;69746;45.596;10.154;2023-11-19T10:45:23;99813.09;;;16.77;56.00
80410;BME280;69746;45.596;10.154;2023-11-19T10:47:51;99809.50;;;16.77;56.30
80410;BME280;69746;45.596;10.154;2023-11-19T10:50:17;99804.81;;;16.77;56.14
80410;BME280;69746;45.596;10.154;2023-11-19T10:52:45;99818.59;;;16.77;56.29
80410;BME280;69746;45.596;10.154;2023-11-19T10:55:15;99826.59;;;16.79;56.30
80410;BME280;69746;45.596;10.154;2023-11-19T10:57:46;99827.69;;;16.78;56.12
80410;BME280;69746;45.596;10.154;2023-11-19T11:00:22;99818.59;;;16.77;56.30
80410;BME280;69746;45.596;10.154;2023-11-19T11:02:55;99801.81;;;16.74;56.42
80410;BME280;69746;45.596;10.154;2023-11-19T11:05:22;99805.66;;;16.78;56.00
80410;BME280;69746;45.596;10.154;2023-11-19T11:07:49;99801.25;;;16.77;56.37
80410;BME280;69746;45.596;10.154;2023-11-19T11:10:19;99802.06;;;16.77;56.11
80410;BME280;69746;45.596;10.154;2023-11-19T11:12:48;99800.97;;;16.78;56.33
80410;BME280;69746;45.596;10.154;2023-11-19T11:15:18;99801.78;;;16.79;56.25
80410;BME280;69746;45.596;10.154;2023-11-19T11:17:45;99787.19;;;16.78;56.29
80410;BME280;69746;45.596;10.154;2023-11-19T11:20:12;99785.53;;;16.77;56.41
80410;BME280;69746;45.596;10.154;2023-11-19T11:22:55;99777.00;;;16.79;56.10
80410;BME280;69746;45.596;10.154;2023-11-19T11:25:40;99771.50;;;16.79;56.23
80410;BME280;69746;45.596;10.154;2023-11-19T11:28:25;99772.59;;;16.78;56.19
80410;BME280;69746;45.596;10.154;2023-11-19T11:36:23;99778.94;;;16.78;56.10
80410;BME280;69746;45.596;10.154;2023-11-19T11:38:50;99788.28;;;16.77;56.17
80410;BME280;69746;45.596;10.154;2023-11-19T11:41:19;99781.69;;;16.78;56.14
80410;BME280;69746;45.596;10.154;2023-11-19T11:43:53;99781.69;;;16.78;56.05
80410;BME280;69746;45.596;10.154;2023-11-19T11:49:05;99758.81;;;16.78;56.23
80410;BME280;69746;45.596;10.154;2023-11-19T11:54:10;99761.56;;;16.78;56.10
80410;BME280;69746;45.596;10.154;2023-11-19T11:56:39;99761.56;;;16.78;56.22
80410;BME280;69746;45.596;10.154;2023-11-19T11:59:18;99759.41;;;16.80;56.15
80410;BME280;69746;45.596;10.154;2023-11-19T12:01:58;99755.78;;;16.79;56.13
80410;BME280;69746;45.596;10.154;2023-11-19T12:04:28;99752.22;;;16.79;56.17
80410;BME280;69746;45.596;10.154;2023-11-19T12:07:12;99742.28;;;16.78;56.51
80410;BME280;69746;45.596;10.154;2023-11-19T12:09:42;99738.44;;;16.79;56.40
80410;BME280;69746;45.596;10.154;2023-11-19T12:15:07;99751.97;;;16.80;56.29
80410;BME280;69746;45.596;10.154;2023-11-19T12:17:49;99734.84;;;16.78;56.18
80410;BME280;69746;45.596;10.154;2023-11-19T12:20:16;99740.38;;;16.78;56.21
80410;BME280;69746;45.596;10.154;2023-11-19T12:22:45;99742.00;;;16.79;56.20
80410;BME280;69746;45.596;10.154;2023-11-19T12:25:12;99724.66;;;16.79;56.40
80410;BME280;69746;45.596;10.154;2023-11-19T12:27:43;99730.16;;;16.79;56.10
80410;BME280;69746;45.596;10.154;2023-11-19T12:30:12;99723.59;;;16.80;56.31
80410;BME280;69746;45.596;10.154;2023-11-19T12:32:44;99723.59;;;16.80;56.11
80410;BME280;69746;45.596;10.154;2023-11-19T12:35:11;99698.50;;;16.76;56.41
80410;BME280;69746;45.596;10.154;2023-11-19T12:37:40;99694.13;;;16.80;56.29
80410;BME280;69746;45.596;10.154;2023-11-19T12:40:14;99700.44;;;16.81;56.38
80410;BME280;69746;45.596;10.154;2023-11-19T12:42:41;99693.28;;;16.80;56.08
80410;BME280;69746;45.596;10.154;2023-11-19T12:45:07;99687.78;;;16.80;56.10
80410;BME280;69746;45.596;10.154;2023-11-19T12:47:37;99685.03;;;16.80;56.39
80410;BME280;69746;45.596;10.154;2023-11-19T12:50:03;99676.75;;;16.80;56.44
80410;BME280;69746;45.596;10.154;2023-11-19T12:52:30;99674.00;;;16.80;56.31
80410;BME280;69746;45.596;10.154;2023-11-19T12:54:56;99678.41;;;16.81;56.28
80410;BME280;69746;45.596;10.154;2023-11-19T12:57:40;99671.78;;;16.82;56.40
80410;BME280;69746;45.596;10.154;2023-11-19T13:00:19;99667.38;;;16.81;56.37
80410;BME280;69746;45.596;10.154;2023-11-19T13:02:53;99669.31;;;16.80;56.30
80410;BME280;69746;45.596;10.154;2023-11-19T13:07:48;99672.91;;;16.81;56.36